createdAt,value
2017-08-15T00:00:45.054Z,1010.9
2017-08-15T00:01:46.695Z,1010.8
2017-08-15T00:02:48.326Z,1010.8
2017-08-15T00:03:49.964Z,1010.8
2017-08-15T00:04:51.604Z,1010.8
2017-08-15T00:05:53.243Z,1010.8
2017-08-15T00:06:54.881Z,1010.8
2017-08-15T00:07:56.522Z,1010.8
2017-08-15T00:08:58.162Z,1010.7
2017-08-15T00:09:59.799Z,1010.7
2017-08-15T00:11:01.435Z,1010.7
2017-08-15T00:12:03.074Z,1010.7
2017-08-15T00:13:04.717Z,1010.7
2017-08-15T00:14:06.359Z,1010.7
2017-08-15T00:15:08.000Z,1010.7
2017-08-15T00:16:09.638Z,1010.7
2017-08-15T00:17:11.276Z,1010.7
2017-08-15T00:18:12.908Z,1010.7
2017-08-15T00:19:14.551Z,1010.7
2017-08-15T00:20:16.189Z,1010.7
2017-08-15T00:21:17.828Z,1010.7
2017-08-15T00:22:19.465Z,1010.7
2017-08-15T00:23:21.111Z,1010.7
2017-08-15T00:24:22.740Z,1010.7
2017-08-15T00:25:24.375Z,1010.7
2017-08-15T00:26:26.011Z,1010.7
2017-08-15T00:27:27.648Z,1010.7
2017-08-15T00:28:29.294Z,1010.7
2017-08-15T00:29:30.931Z,1010.7
2017-08-15T00:30:32.578Z,1010.7
2017-08-15T00:31:34.213Z,1010.7
2017-08-15T00:32:35.846Z,1010.7
2017-08-15T00:33:37.483Z,1010.7
2017-08-15T00:34:39.123Z,1010.7
2017-08-15T00:35:40.765Z,1010.7
2017-08-15T00:36:42.402Z,1010.7
2017-08-15T00:37:44.040Z,1010.7
2017-08-15T00:38:45.682Z,1010.7
2017-08-15T00:39:47.318Z,1010.7
2017-08-15T00:40:48.953Z,1010.7
2017-08-15T00:41:50.593Z,1010.8
2017-08-15T00:42:52.229Z,1010.7
2017-08-15T00:43:53.867Z,1010.8
2017-08-15T00:44:55.510Z,1010.7
2017-08-15T00:45:57.146Z,1010.7
2017-08-15T00:46:58.782Z,1010.7
2017-08-15T00:48:00.422Z,1010.7
2017-08-15T00:49:02.088Z,1010.7
2017-08-15T00:50:03.698Z,1010.8
2017-08-15T00:51:05.339Z,1010.8
2017-08-15T00:52:06.979Z,1010.8
2017-08-15T00:53:08.617Z,1010.8
2017-08-15T00:54:10.251Z,1010.8
2017-08-15T00:55:11.887Z,1010.8
2017-08-15T00:56:13.522Z,1010.8
2017-08-15T00:57:15.162Z,1010.8
2017-08-15T00:58:16.804Z,1010.8
2017-08-15T00:59:18.442Z,1010.8
2017-08-15T01:00:20.076Z,1010.8
2017-08-15T01:01:21.710Z,1010.8
2017-08-15T01:02:23.347Z,1010.8
2017-08-15T01:03:24.983Z,1010.8
2017-08-15T01:04:26.624Z,1010.8
2017-08-15T01:05:28.263Z,1010.8
2017-08-15T01:06:29.902Z,1010.8
2017-08-15T01:07:31.542Z,1010.8
2017-08-15T01:08:33.177Z,1010.8
2017-08-15T01:09:34.814Z,1010.8
2017-08-15T01:10:36.449Z,1010.8
2017-08-15T01:11:38.086Z,1010.8
2017-08-15T01:12:39.727Z,1010.8
2017-08-15T01:13:41.368Z,1010.8
2017-08-15T01:14:43.001Z,1010.8
2017-08-15T01:15:44.638Z,1010.8
2017-08-15T01:16:46.273Z,1010.8
2017-08-15T01:17:47.914Z,1010.8
2017-08-15T01:18:49.550Z,1010.8
2017-08-15T01:19:51.187Z,1010.7
2017-08-15T01:20:52.826Z,1010.8
2017-08-15T01:21:54.465Z,1010.7
2017-08-15T01:22:56.102Z,1010.8
2017-08-15T01:23:57.741Z,1010.8
2017-08-15T01:24:59.375Z,1010.8
2017-08-15T01:26:01.017Z,1010.7
2017-08-15T01:27:02.673Z,1010.7
2017-08-15T01:28:04.310Z,1010.7
2017-08-15T01:29:05.947Z,1010.7
2017-08-15T01:30:07.585Z,1010.7
2017-08-15T01:31:09.228Z,1010.7
2017-08-15T01:32:10.865Z,1010.6
2017-08-15T01:33:12.500Z,1010.6
2017-08-15T01:34:14.143Z,1010.6
2017-08-15T01:35:15.784Z,1010.6
2017-08-15T01:36:17.422Z,1010.7
2017-08-15T01:37:19.056Z,1010.6
2017-08-15T01:38:20.692Z,1010.6
2017-08-15T01:39:22.331Z,1010.6
2017-08-15T01:40:23.970Z,1010.6
2017-08-15T01:41:25.606Z,1010.6
2017-08-15T01:42:27.244Z,1010.6
2017-08-15T01:43:28.878Z,1010.6
2017-08-15T01:44:30.519Z,1010.7
2017-08-15T01:45:32.153Z,1010.7
2017-08-15T01:46:33.793Z,1010.6
2017-08-15T01:47:35.433Z,1010.6
2017-08-15T01:48:37.073Z,1010.6
2017-08-15T01:49:38.714Z,1010.6
2017-08-15T01:50:40.347Z,1010.6
2017-08-15T01:51:41.982Z,1010.6
2017-08-15T01:52:43.619Z,1010.6
2017-08-15T01:53:45.257Z,1010.5
2017-08-15T01:54:46.896Z,1010.5
2017-08-15T01:55:48.530Z,1010.5
2017-08-15T01:56:50.170Z,1010.6
2017-08-15T01:57:51.809Z,1010.5
2017-08-15T01:58:53.449Z,1010.5
2017-08-15T01:59:55.084Z,1010.5
2017-08-15T02:00:56.724Z,1010.5
2017-08-15T02:01:58.364Z,1010.5
2017-08-15T02:03:00.002Z,1010.5
2017-08-15T02:04:01.644Z,1010.5
2017-08-15T02:05:03.275Z,1010.5
2017-08-15T02:06:04.914Z,1010.4
2017-08-15T02:07:06.550Z,1010.4
2017-08-15T02:08:08.187Z,1010.5
2017-08-15T02:09:09.829Z,1010.5
2017-08-15T02:10:11.467Z,1010.4
2017-08-15T02:11:13.118Z,1010.5
2017-08-15T02:12:14.753Z,1010.4
2017-08-15T02:13:16.393Z,1010.4
2017-08-15T02:14:18.031Z,1010.4
2017-08-15T02:15:19.671Z,1010.4
2017-08-15T02:16:21.310Z,1010.4
2017-08-15T02:17:22.944Z,1010.4
2017-08-15T02:18:24.585Z,1010.4
2017-08-15T02:19:26.245Z,1010.4
2017-08-15T02:20:27.855Z,1010.4
2017-08-15T02:21:29.495Z,1010.4
2017-08-15T02:22:31.134Z,1010.4
2017-08-15T02:23:32.775Z,1010.4
2017-08-15T02:24:34.410Z,1010.4
2017-08-15T02:25:36.051Z,1010.4
2017-08-15T02:26:37.690Z,1010.4
2017-08-15T02:27:39.326Z,1010.4
2017-08-15T02:28:40.965Z,1010.3
2017-08-15T02:29:42.598Z,1010.3
2017-08-15T02:30:44.248Z,1010.3
2017-08-15T02:31:45.886Z,1010.3
2017-08-15T02:32:47.526Z,1010.3
2017-08-15T02:33:49.163Z,1010.3
2017-08-15T02:34:50.797Z,1010.3
2017-08-15T02:35:52.436Z,1010.3
2017-08-15T02:36:54.070Z,1010.3
2017-08-15T02:37:55.710Z,1010.3
2017-08-15T02:38:57.346Z,1010.3
2017-08-15T02:39:58.992Z,1010.3
2017-08-15T02:41:00.626Z,1010.3
2017-08-15T02:42:02.268Z,1010.3
2017-08-15T02:43:03.906Z,1010.3
2017-08-15T02:44:05.541Z,1010.3
2017-08-15T02:45:07.176Z,1010.3
2017-08-15T02:46:08.814Z,1010.3
2017-08-15T02:47:10.458Z,1010.4
2017-08-15T02:48:12.093Z,1010.4
2017-08-15T02:49:13.737Z,1010.4
2017-08-15T02:50:15.378Z,1010.4
2017-08-15T02:51:17.015Z,1010.4
2017-08-15T02:52:18.651Z,1010.4
2017-08-15T02:53:20.294Z,1010.4
2017-08-15T02:54:21.934Z,1010.4
2017-08-15T02:55:23.567Z,1010.4
2017-08-15T02:56:25.204Z,1010.4
2017-08-15T02:57:26.842Z,1010.4
2017-08-15T02:58:28.484Z,1010.4
2017-08-15T02:59:30.122Z,1010.4
2017-08-15T03:00:31.760Z,1010.4
2017-08-15T03:01:33.398Z,1010.4
2017-08-15T03:02:35.038Z,1010.4
2017-08-15T03:03:36.676Z,1010.4
2017-08-15T03:04:38.314Z,1010.5
2017-08-15T03:05:39.950Z,1010.4
2017-08-15T03:06:41.588Z,1010.5
2017-08-15T03:07:43.226Z,1010.4
2017-08-15T03:08:44.864Z,1010.4
2017-08-15T03:09:46.500Z,1010.4
2017-08-15T03:10:48.135Z,1010.4
2017-08-15T03:11:49.774Z,1010.4
2017-08-15T03:12:51.407Z,1010.4
2017-08-15T03:13:53.050Z,1010.4
2017-08-15T03:14:54.688Z,1010.4
2017-08-15T03:15:56.325Z,1010.4
2017-08-15T03:16:57.961Z,1010.4
2017-08-15T03:17:59.598Z,1010.4
2017-08-15T03:19:01.237Z,1010.4
2017-08-15T03:20:02.879Z,1010.4
2017-08-15T03:21:04.514Z,1010.4
2017-08-15T03:22:06.151Z,1010.4
2017-08-15T03:23:07.792Z,1010.4
2017-08-15T03:24:09.429Z,1010.4
2017-08-15T03:25:11.065Z,1010.4
2017-08-15T03:26:12.701Z,1010.4
2017-08-15T03:27:14.339Z,1010.4
2017-08-15T03:28:15.975Z,1010.4
2017-08-15T03:29:17.611Z,1010.4
2017-08-15T03:30:19.250Z,1010.4
2017-08-15T03:31:20.889Z,1010.4
2017-08-15T03:32:22.529Z,1010.4
2017-08-15T03:33:24.166Z,1010.3
2017-08-15T03:34:25.801Z,1010.3
2017-08-15T03:35:27.439Z,1010.3
2017-08-15T03:36:29.082Z,1010.2
2017-08-15T03:37:30.718Z,1010.3
2017-08-15T03:38:32.351Z,1010.2
2017-08-15T03:39:33.986Z,1010.3
2017-08-15T03:40:35.624Z,1010.2
2017-08-15T03:41:37.263Z,1010.2
2017-08-15T03:42:38.931Z,1010.2
2017-08-15T03:43:40.571Z,1010.2
2017-08-15T03:44:42.211Z,1010.2
2017-08-15T03:45:43.846Z,1010.2
2017-08-15T03:46:45.492Z,1010.2
2017-08-15T03:47:47.126Z,1010.2
2017-08-15T03:48:48.767Z,1010.2
2017-08-15T03:49:50.402Z,1010.1
2017-08-15T03:50:52.045Z,1010.1
2017-08-15T03:51:53.680Z,1010.1
2017-08-15T03:52:55.313Z,1010.1
2017-08-15T03:53:56.951Z,1010.1
2017-08-15T03:54:58.589Z,1010.1
2017-08-15T03:56:00.227Z,1010.1
2017-08-15T03:57:01.864Z,1010.1
2017-08-15T03:58:03.515Z,1010.1
2017-08-15T03:59:05.158Z,1010.1
2017-08-15T04:00:06.790Z,1010.1
2017-08-15T04:01:08.431Z,1010.0
2017-08-15T04:02:10.067Z,1010.0
2017-08-15T04:03:11.703Z,1010.0
2017-08-15T04:04:13.351Z,1010.1
2017-08-15T04:05:14.981Z,1010.1
2017-08-15T04:06:16.620Z,1010.0
2017-08-15T04:07:18.259Z,1010.0
2017-08-15T04:08:19.896Z,1010.1
2017-08-15T04:09:21.529Z,1010.1
2017-08-15T04:10:23.169Z,1010.0
2017-08-15T04:11:24.809Z,1010.0
2017-08-15T04:12:26.449Z,1010.0
2017-08-15T04:13:28.093Z,1010.0
2017-08-15T04:14:29.721Z,1010.0
2017-08-15T04:15:31.355Z,1009.9
2017-08-15T04:16:32.997Z,1009.9
2017-08-15T04:17:34.637Z,1009.9
2017-08-15T04:18:36.275Z,1009.9
2017-08-15T04:19:37.912Z,1009.9
2017-08-15T04:20:39.554Z,1009.9
2017-08-15T04:21:41.189Z,1009.9
2017-08-15T04:22:42.824Z,1009.9
2017-08-15T04:23:44.460Z,1009.9
2017-08-15T04:24:46.095Z,1009.9
2017-08-15T04:25:47.737Z,1009.9
2017-08-15T04:26:49.377Z,1009.9
2017-08-15T04:27:51.018Z,1009.9
2017-08-15T04:28:52.652Z,1009.9
2017-08-15T04:29:54.292Z,1009.9
2017-08-15T04:30:55.931Z,1009.9
2017-08-15T04:31:57.569Z,1009.9
2017-08-15T04:32:59.208Z,1009.8
2017-08-15T04:34:00.845Z,1009.9
2017-08-15T04:35:02.493Z,1009.9
2017-08-15T04:36:04.122Z,1009.9
2017-08-15T04:37:05.756Z,1009.9
2017-08-15T04:38:07.389Z,1009.9
2017-08-15T04:39:09.026Z,1010.0
2017-08-15T04:40:10.667Z,1010.0
2017-08-15T04:41:12.304Z,1009.9
2017-08-15T04:42:13.942Z,1010.0
2017-08-15T04:43:15.574Z,1009.9
2017-08-15T04:44:17.214Z,1010.0
2017-08-15T04:45:18.853Z,1009.9
2017-08-15T04:46:20.493Z,1010.0
2017-08-15T04:47:22.133Z,1009.9
2017-08-15T04:48:23.770Z,1009.9
2017-08-15T04:49:25.412Z,1009.9
2017-08-15T04:50:27.047Z,1009.9
2017-08-15T04:51:28.684Z,1009.9
2017-08-15T04:52:30.322Z,1009.9
2017-08-15T04:53:31.964Z,1009.9
2017-08-15T04:54:33.599Z,1009.9
2017-08-15T04:55:35.236Z,1009.9
2017-08-15T04:56:36.882Z,1009.9
2017-08-15T04:57:38.518Z,1009.9
2017-08-15T04:58:40.155Z,1009.9
2017-08-15T04:59:41.794Z,1009.9
2017-08-15T05:00:43.429Z,1009.9
2017-08-15T05:01:45.071Z,1009.9
2017-08-15T05:02:46.709Z,1009.9
2017-08-15T05:03:48.347Z,1009.8
2017-08-15T05:04:49.991Z,1009.8
2017-08-15T05:05:51.623Z,1009.8
2017-08-15T05:06:53.262Z,1009.8
2017-08-15T05:07:54.901Z,1009.8
2017-08-15T05:08:56.537Z,1009.8
2017-08-15T05:09:58.175Z,1009.8
2017-08-15T05:10:59.820Z,1009.8
2017-08-15T05:12:01.455Z,1009.8
2017-08-15T05:13:03.095Z,1009.8
2017-08-15T05:14:04.731Z,1009.8
2017-08-15T05:15:06.369Z,1009.8
2017-08-15T05:16:08.011Z,1009.8
2017-08-15T05:17:09.647Z,1009.9
2017-08-15T05:18:11.290Z,1009.9
2017-08-15T05:19:12.925Z,1009.9
2017-08-15T05:20:14.562Z,1009.9
2017-08-15T05:21:16.199Z,1009.9
2017-08-15T05:22:17.839Z,1009.9
2017-08-15T05:23:19.477Z,1009.9
2017-08-15T05:24:21.117Z,1009.9
2017-08-15T05:25:22.755Z,1009.9
2017-08-15T05:26:24.393Z,1009.9
2017-08-15T05:27:26.032Z,1009.9
2017-08-15T05:28:27.667Z,1010.0
2017-08-15T05:29:29.307Z,1010.0
2017-08-15T05:30:30.945Z,1010.0
2017-08-15T05:31:32.588Z,1009.9
2017-08-15T05:32:34.247Z,1009.9
2017-08-15T05:33:35.881Z,1009.9
2017-08-15T05:34:37.523Z,1009.9
2017-08-15T05:35:39.156Z,1009.9
2017-08-15T05:36:40.795Z,1009.9
2017-08-15T05:37:42.441Z,1009.9
2017-08-15T05:38:44.080Z,1010.0
2017-08-15T05:39:45.725Z,1010.0
2017-08-15T05:40:47.357Z,1009.9
2017-08-15T05:41:48.994Z,1009.9
2017-08-15T05:42:50.629Z,1009.9
2017-08-15T05:43:52.268Z,1009.9
2017-08-15T05:44:53.904Z,1009.9
2017-08-15T05:45:55.545Z,1009.8
2017-08-15T05:46:57.185Z,1009.8
2017-08-15T05:47:58.824Z,1009.8
2017-08-15T05:49:00.473Z,1009.8
2017-08-15T05:50:02.112Z,1009.7
2017-08-15T05:51:03.767Z,1009.8
2017-08-15T05:52:05.409Z,1009.7
2017-08-15T05:53:07.048Z,1009.7
2017-08-15T05:54:08.690Z,1009.7
2017-08-15T05:55:10.324Z,1009.7
2017-08-15T05:56:11.961Z,1009.7
2017-08-15T05:57:13.597Z,1009.7
2017-08-15T05:58:15.237Z,1009.7
2017-08-15T05:59:16.874Z,1009.6
2017-08-15T06:00:18.515Z,1009.6
2017-08-15T06:01:20.157Z,1009.6
2017-08-15T06:02:21.792Z,1009.6
2017-08-15T06:03:23.430Z,1009.6
2017-08-15T06:04:25.066Z,1009.7
2017-08-15T06:05:26.703Z,1009.6
2017-08-15T06:06:28.346Z,1009.6
2017-08-15T06:07:29.986Z,1009.5
2017-08-15T06:08:31.626Z,1009.5
2017-08-15T06:09:33.260Z,1009.5
2017-08-15T06:10:34.899Z,1009.4
2017-08-15T06:11:36.540Z,1009.4
2017-08-15T06:12:38.177Z,1009.4
2017-08-15T06:13:39.814Z,1009.3
2017-08-15T06:14:41.453Z,1009.3
2017-08-15T06:15:43.094Z,1009.2
2017-08-15T06:16:44.727Z,1009.2
2017-08-15T06:17:46.362Z,1009.2
2017-08-15T06:18:47.999Z,1009.2
2017-08-15T06:19:49.638Z,1009.2
2017-08-15T06:20:51.278Z,1009.2
2017-08-15T06:21:52.916Z,1009.3
2017-08-15T06:22:54.555Z,1009.3
2017-08-15T06:23:56.191Z,1009.4
2017-08-15T06:24:57.831Z,1009.4
2017-08-15T06:25:59.471Z,1009.5
2017-08-15T06:27:01.112Z,1009.6
2017-08-15T06:28:02.752Z,1009.6
2017-08-15T06:29:04.395Z,1009.6
2017-08-15T06:30:06.036Z,1009.6
2017-08-15T06:31:07.672Z,1009.5
2017-08-15T06:32:09.312Z,1009.6
2017-08-15T06:33:10.952Z,1009.6
2017-08-15T06:34:12.594Z,1009.5
2017-08-15T06:35:14.232Z,1009.5
2017-08-15T06:36:15.869Z,1009.5
2017-08-15T06:37:17.514Z,1009.5
2017-08-15T06:38:19.151Z,1009.6
2017-08-15T06:39:20.792Z,1009.6
2017-08-15T06:40:22.431Z,1009.6
2017-08-15T06:41:24.069Z,1009.7
2017-08-15T06:42:25.710Z,1009.8
2017-08-15T06:43:27.352Z,1009.8
2017-08-15T06:44:28.996Z,1009.8
2017-08-15T06:45:30.632Z,1009.9
2017-08-15T06:46:32.266Z,1009.8
2017-08-15T06:47:33.909Z,1009.8
2017-08-15T06:48:35.549Z,1009.7
2017-08-15T06:49:37.192Z,1009.7
2017-08-15T06:50:38.828Z,1009.6
2017-08-15T06:51:40.469Z,1009.6
2017-08-15T06:52:42.105Z,1009.6
2017-08-15T06:53:43.743Z,1009.6
2017-08-15T06:54:45.380Z,1009.5
2017-08-15T06:55:47.025Z,1009.4
2017-08-15T06:56:48.664Z,1009.4
2017-08-15T06:57:50.311Z,1009.4
2017-08-15T06:58:51.955Z,1009.4
2017-08-15T06:59:53.594Z,1009.4
2017-08-15T07:00:55.234Z,1009.4
2017-08-15T07:01:56.875Z,1009.4
2017-08-15T07:02:58.517Z,1009.5
2017-08-15T07:04:00.156Z,1009.6
2017-08-15T07:05:01.797Z,1009.6
2017-08-15T07:06:03.439Z,1009.6
2017-08-15T07:07:05.075Z,1009.7
2017-08-15T07:08:06.722Z,1009.6
2017-08-15T07:09:08.354Z,1009.6
2017-08-15T07:10:10.001Z,1009.6
2017-08-15T07:11:11.645Z,1009.6
2017-08-15T07:12:13.290Z,1009.6
2017-08-15T07:13:14.926Z,1009.5
2017-08-15T07:14:16.568Z,1009.5
2017-08-15T07:15:18.205Z,1009.5
2017-08-15T07:16:19.848Z,1009.5
2017-08-15T07:17:21.487Z,1009.4
2017-08-15T07:18:23.129Z,1009.4
2017-08-15T07:19:24.766Z,1009.5
2017-08-15T07:20:26.416Z,1009.4
2017-08-15T07:21:28.054Z,1009.4
2017-08-15T07:22:29.699Z,1009.4
2017-08-15T07:23:31.330Z,1009.4
2017-08-15T07:24:32.967Z,1009.5
2017-08-15T07:25:34.612Z,1009.4
2017-08-15T07:26:36.253Z,1009.4
2017-08-15T07:27:37.897Z,1009.3
2017-08-15T07:28:39.566Z,1009.3
2017-08-15T07:29:41.174Z,1009.2
2017-08-15T07:30:42.812Z,1009.2
2017-08-15T07:31:44.450Z,1009.2
2017-08-15T07:32:46.092Z,1009.3
2017-08-15T07:33:47.735Z,1009.3
2017-08-15T07:34:49.378Z,1009.3
2017-08-15T07:35:51.013Z,1009.3
2017-08-15T07:36:52.652Z,1009.3
2017-08-15T07:37:54.293Z,1009.3
2017-08-15T07:38:55.932Z,1009.3
2017-08-15T07:39:57.574Z,1009.3
2017-08-15T07:40:59.213Z,1009.3
2017-08-15T07:42:00.858Z,1009.3
2017-08-15T07:43:02.499Z,1009.3
2017-08-15T07:44:04.140Z,1009.3
2017-08-15T07:45:05.775Z,1009.3
2017-08-15T07:46:07.417Z,1009.3
2017-08-15T07:47:09.054Z,1009.4
2017-08-15T07:48:10.698Z,1009.5
2017-08-15T07:49:12.336Z,1009.6
2017-08-15T07:50:13.972Z,1009.7
2017-08-15T07:51:15.617Z,1009.7
2017-08-15T07:52:17.254Z,1009.8
2017-08-15T07:53:18.896Z,1009.8
2017-08-15T07:54:20.544Z,1009.9
2017-08-15T07:55:22.203Z,1009.9
2017-08-15T07:56:23.841Z,1010.0
2017-08-15T07:57:25.484Z,1010.1
2017-08-15T07:58:27.122Z,1010.1
2017-08-15T07:59:28.762Z,1010.0
2017-08-15T08:00:30.401Z,1010.0
2017-08-15T08:01:32.039Z,1010.0
2017-08-15T08:02:33.681Z,1010.0
2017-08-15T08:03:35.321Z,1010.1
2017-08-15T08:04:36.960Z,1010.1
2017-08-15T08:05:38.593Z,1010.1
2017-08-15T08:06:40.247Z,1010.1
2017-08-15T08:07:41.885Z,1010.1
2017-08-15T08:08:43.529Z,1010.1
2017-08-15T08:09:45.182Z,1010.1
2017-08-15T08:10:46.830Z,1010.2
2017-08-15T08:11:48.467Z,1010.1
2017-08-15T08:12:50.106Z,1010.2
2017-08-15T08:13:51.747Z,1010.2
2017-08-15T08:14:53.386Z,1010.3
2017-08-15T08:15:55.027Z,1010.3
2017-08-15T08:16:56.666Z,1010.4
2017-08-15T08:17:58.317Z,1010.4
2017-08-15T08:18:59.955Z,1010.5
2017-08-15T08:20:01.595Z,1010.6
2017-08-15T08:21:03.230Z,1010.6
2017-08-15T08:22:04.870Z,1010.7
2017-08-15T08:23:06.509Z,1010.7
2017-08-15T08:24:08.149Z,1010.8
2017-08-15T08:25:09.791Z,1010.8
2017-08-15T08:26:11.428Z,1010.8
2017-08-15T08:27:13.066Z,1010.9
2017-08-15T08:28:14.701Z,1011.0
2017-08-15T08:29:16.341Z,1011.0
2017-08-15T08:30:17.979Z,1011.0
2017-08-15T08:31:19.621Z,1011.1
2017-08-15T08:32:21.262Z,1011.1
2017-08-15T08:33:22.900Z,1011.1
2017-08-15T08:34:24.540Z,1011.1
2017-08-15T08:35:26.170Z,1011.1
2017-08-15T08:36:27.808Z,1011.1
2017-08-15T08:37:29.450Z,1011.1
2017-08-15T08:38:31.086Z,1011.1
2017-08-15T08:39:32.726Z,1011.2
2017-08-15T08:40:34.364Z,1011.2
2017-08-15T08:41:36.002Z,1011.2
2017-08-15T08:42:37.642Z,1011.2
2017-08-15T08:43:39.278Z,1011.2
2017-08-15T08:44:40.919Z,1011.2
2017-08-15T08:45:42.561Z,1011.1
2017-08-15T08:46:44.222Z,1011.1
2017-08-15T08:47:45.855Z,1011.1
2017-08-15T08:48:47.493Z,1011.1
2017-08-15T08:49:49.132Z,1011.1
2017-08-15T08:50:50.769Z,1011.1
2017-08-15T08:51:52.411Z,1011.1
2017-08-15T08:52:54.047Z,1011.1
2017-08-15T08:53:55.686Z,1011.1
2017-08-15T08:54:57.323Z,1011.1
2017-08-15T08:55:58.986Z,1011.1
2017-08-15T08:57:00.624Z,1011.1
2017-08-15T08:58:02.266Z,1011.1
2017-08-15T08:59:03.904Z,1011.1
2017-08-15T09:00:05.548Z,1011.1
2017-08-15T09:01:07.189Z,1011.2
2017-08-15T09:02:08.823Z,1011.2
2017-08-15T09:03:10.463Z,1011.3
2017-08-15T09:04:12.105Z,1011.2
2017-08-15T09:05:13.743Z,1011.3
2017-08-15T09:06:15.387Z,1011.3
2017-08-15T09:07:17.024Z,1011.3
2017-08-15T09:08:18.665Z,1011.3
2017-08-15T09:09:20.300Z,1011.3
2017-08-15T09:10:21.940Z,1011.3
2017-08-15T09:11:23.579Z,1011.3
2017-08-15T09:12:25.218Z,1011.3
2017-08-15T09:13:26.860Z,1011.3
2017-08-15T09:14:28.500Z,1011.2
2017-08-15T09:15:30.139Z,1011.2
2017-08-15T09:16:31.774Z,1011.2
2017-08-15T09:17:33.414Z,1011.2
2017-08-15T09:18:35.057Z,1011.2
2017-08-15T09:19:36.691Z,1011.2
2017-08-15T09:20:38.334Z,1011.2
2017-08-15T09:21:39.974Z,1011.3
2017-08-15T09:22:41.609Z,1011.3
2017-08-15T09:23:43.246Z,1011.3
2017-08-15T09:24:44.884Z,1011.3
2017-08-15T09:25:46.524Z,1011.3
2017-08-15T09:26:48.161Z,1011.3
2017-08-15T09:27:49.803Z,1011.2
2017-08-15T09:28:51.449Z,1011.3
2017-08-15T09:29:53.096Z,1011.3
2017-08-15T09:30:54.733Z,1011.4
2017-08-15T09:31:56.369Z,1011.4
2017-08-15T09:32:58.009Z,1011.4
2017-08-15T09:33:59.653Z,1011.4
2017-08-15T09:35:01.296Z,1011.4
2017-08-15T09:36:02.933Z,1011.4
2017-08-15T09:37:04.575Z,1011.4
2017-08-15T09:38:06.212Z,1011.3
2017-08-15T09:39:07.867Z,1011.3
2017-08-15T09:40:09.501Z,1011.3
2017-08-15T09:41:11.137Z,1011.4
2017-08-15T09:42:12.777Z,1011.3
2017-08-15T09:43:14.416Z,1011.4
2017-08-15T09:44:16.071Z,1011.4
2017-08-15T09:45:17.706Z,1011.3
2017-08-15T09:46:19.348Z,1011.2
2017-08-15T09:47:20.987Z,1011.2
2017-08-15T09:48:22.637Z,1011.1
2017-08-15T09:49:24.283Z,1011.1
2017-08-15T09:50:25.940Z,1011.0
2017-08-15T09:51:27.589Z,1011.0
2017-08-15T09:52:29.226Z,1011.0
2017-08-15T09:53:30.862Z,1011.0
2017-08-15T09:54:32.502Z,1010.9
2017-08-15T09:55:34.135Z,1010.8
2017-08-15T09:56:35.778Z,1010.9
2017-08-15T09:57:37.418Z,1011.0
2017-08-15T09:58:39.062Z,1011.0
2017-08-15T09:59:40.698Z,1011.1
2017-08-15T10:00:42.336Z,1011.1
2017-08-15T10:01:43.974Z,1011.1
2017-08-15T10:02:45.612Z,1011.1
2017-08-15T10:03:47.254Z,1011.1
2017-08-15T10:04:48.894Z,1011.1
2017-08-15T10:05:50.533Z,1011.1
2017-08-15T10:06:52.170Z,1011.2
2017-08-15T10:07:53.808Z,1011.2
2017-08-15T10:08:55.448Z,1011.1
2017-08-15T10:09:57.086Z,1011.1
2017-08-15T10:10:58.731Z,1011.1
2017-08-15T10:12:00.371Z,1011.1
2017-08-15T10:13:02.019Z,1011.1
2017-08-15T10:14:03.655Z,1011.1
2017-08-15T10:15:05.294Z,1011.0
2017-08-15T10:16:06.931Z,1011.0
2017-08-15T10:17:08.574Z,1011.0
2017-08-15T10:18:10.212Z,1011.0
2017-08-15T10:19:11.858Z,1011.0
2017-08-15T10:20:13.497Z,1010.9
2017-08-15T10:21:15.134Z,1010.8
2017-08-15T10:22:16.774Z,1010.7
2017-08-15T10:23:18.410Z,1010.4
2017-08-15T10:24:20.050Z,1010.1
2017-08-15T10:25:21.704Z,1009.7
2017-08-15T10:26:23.345Z,1009.3
2017-08-15T10:27:24.985Z,1009.2
2017-08-15T10:28:26.624Z,1009.3
2017-08-15T10:29:28.272Z,1009.3
2017-08-15T10:30:29.913Z,1009.4
2017-08-15T10:31:31.549Z,1009.3
2017-08-15T10:32:33.208Z,1009.3
2017-08-15T10:33:35.451Z,1009.1
2017-08-15T10:34:37.091Z,1009.0
2017-08-15T10:35:38.737Z,1009.0
2017-08-15T10:36:40.376Z,1009.0
2017-08-15T10:37:42.011Z,1008.9
2017-08-15T10:38:43.650Z,1008.9
2017-08-15T10:39:45.295Z,1008.9
2017-08-15T10:40:46.939Z,1008.9
2017-08-15T10:41:48.571Z,1008.9
2017-08-15T10:42:50.207Z,1008.9
2017-08-15T10:43:51.846Z,1008.9
2017-08-15T10:44:53.487Z,1008.9
2017-08-15T10:45:55.127Z,1008.9
2017-08-15T10:46:56.768Z,1008.9
2017-08-15T10:47:58.404Z,1008.9
2017-08-15T10:49:00.050Z,1008.8
2017-08-15T10:50:01.683Z,1008.8
2017-08-15T10:51:03.325Z,1008.8
2017-08-15T10:52:04.961Z,1008.7
2017-08-15T10:53:06.598Z,1008.7
2017-08-15T10:54:08.241Z,1008.6
2017-08-15T10:55:09.875Z,1008.6
2017-08-15T10:56:11.519Z,1008.7
2017-08-15T10:57:13.152Z,1008.6
2017-08-15T10:58:14.796Z,1008.5
2017-08-15T10:59:16.433Z,1008.4
2017-08-15T11:00:18.068Z,1008.1
2017-08-15T11:01:19.707Z,1008.0
2017-08-15T11:02:21.350Z,1007.9
2017-08-15T11:03:22.997Z,1007.9
2017-08-15T11:04:24.636Z,1007.9
2017-08-15T11:05:26.274Z,1007.8
2017-08-15T11:06:27.942Z,1007.9
2017-08-15T11:07:29.554Z,1007.9
2017-08-15T11:08:31.195Z,1007.9
2017-08-15T11:09:32.841Z,1007.9
2017-08-15T11:10:34.483Z,1007.9
2017-08-15T11:11:36.122Z,1008.0
2017-08-15T11:12:37.764Z,1008.0
2017-08-15T11:13:39.417Z,1008.0
2017-08-15T11:14:41.060Z,1008.0
2017-08-15T11:15:42.700Z,1008.0
2017-08-15T11:16:44.339Z,1008.0
2017-08-15T11:17:45.983Z,1008.0
2017-08-15T11:18:47.620Z,1008.0
2017-08-15T11:19:49.263Z,1008.0
2017-08-15T11:20:50.901Z,1008.0
2017-08-15T11:21:52.549Z,1008.0
2017-08-15T11:22:54.187Z,1008.0
2017-08-15T11:23:55.832Z,1008.1
2017-08-15T11:24:57.475Z,1008.1
2017-08-15T11:25:59.130Z,1008.2
2017-08-15T11:27:00.751Z,1008.3
2017-08-15T11:28:02.390Z,1008.2
2017-08-15T11:29:04.057Z,1008.3
2017-08-15T11:30:05.673Z,1008.2
2017-08-15T11:31:07.314Z,1008.2
2017-08-15T11:32:08.956Z,1008.2
2017-08-15T11:33:10.594Z,1008.2
2017-08-15T11:34:12.233Z,1008.2
2017-08-15T11:35:13.872Z,1008.2
2017-08-15T11:36:15.518Z,1008.2
2017-08-15T11:37:17.159Z,1008.1
2017-08-15T11:38:18.801Z,1008.2
2017-08-15T11:39:20.439Z,1008.2
2017-08-15T11:40:22.078Z,1008.2
2017-08-15T11:41:23.720Z,1008.2
2017-08-15T11:42:25.359Z,1008.3
2017-08-15T11:43:26.998Z,1008.3
2017-08-15T11:44:28.637Z,1008.3
2017-08-15T11:45:30.277Z,1008.3
2017-08-15T11:46:31.922Z,1008.3
2017-08-15T11:47:33.558Z,1008.3
2017-08-15T11:48:35.197Z,1008.3
2017-08-15T11:49:36.835Z,1008.4
2017-08-15T11:50:38.475Z,1008.4
2017-08-15T11:51:40.115Z,1008.4
2017-08-15T11:52:41.752Z,1008.4
2017-08-15T11:53:43.392Z,1008.4
2017-08-15T11:54:45.028Z,1008.4
2017-08-15T11:55:46.664Z,1008.5
2017-08-15T11:56:48.301Z,1008.4
2017-08-15T11:57:49.946Z,1008.4
2017-08-15T11:58:51.586Z,1008.5
2017-08-15T11:59:53.225Z,1008.4
2017-08-15T12:00:54.868Z,1008.4
2017-08-15T12:01:56.503Z,1008.4
2017-08-15T12:02:58.146Z,1008.5
2017-08-15T12:03:59.782Z,1008.4
2017-08-15T12:05:01.420Z,1008.4
2017-08-15T12:06:03.075Z,1008.4
2017-08-15T12:07:04.708Z,1008.4
2017-08-15T12:08:06.350Z,1008.5
2017-08-15T12:09:07.988Z,1008.5
2017-08-15T12:10:09.628Z,1008.6
2017-08-15T12:11:11.270Z,1008.6
2017-08-15T12:12:12.908Z,1008.6
2017-08-15T12:13:14.551Z,1008.6
2017-08-15T12:14:16.191Z,1008.7
2017-08-15T12:15:17.830Z,1008.7
2017-08-15T12:16:19.466Z,1008.7
2017-08-15T12:17:21.109Z,1008.7
2017-08-15T12:18:22.755Z,1008.6
2017-08-15T12:19:24.400Z,1008.7
2017-08-15T12:20:26.035Z,1008.7
2017-08-15T12:21:27.671Z,1008.7
2017-08-15T12:22:29.314Z,1008.7
2017-08-15T12:23:30.952Z,1008.7
2017-08-15T12:24:32.593Z,1008.7
2017-08-15T12:25:34.227Z,1008.8
2017-08-15T12:26:35.867Z,1008.8
2017-08-15T12:27:37.460Z,1008.8
2017-08-15T12:28:39.101Z,1008.8
2017-08-15T12:29:40.738Z,1008.8
2017-08-15T12:30:42.379Z,1008.8
2017-08-15T12:31:44.023Z,1008.8
2017-08-15T12:32:45.655Z,1008.8
2017-08-15T12:33:47.296Z,1008.9
2017-08-15T12:34:48.938Z,1009.0
2017-08-15T12:35:50.575Z,1009.0
2017-08-15T12:36:52.215Z,1009.0
2017-08-15T12:37:53.855Z,1009.0
2017-08-15T12:38:55.491Z,1009.0
2017-08-15T12:39:57.131Z,1009.0
2017-08-15T12:40:58.767Z,1009.0
2017-08-15T12:42:00.406Z,1009.1
2017-08-15T12:43:02.046Z,1009.0
2017-08-15T12:44:03.691Z,1009.0
2017-08-15T12:45:05.326Z,1009.1
2017-08-15T12:46:06.969Z,1009.0
2017-08-15T12:47:08.605Z,1009.0
2017-08-15T12:48:10.246Z,1009.0
2017-08-15T12:49:11.883Z,1009.0